| Date | Time | Temp. (oF) | Dew Point (oF) | Rel. Hum. (%) | Press. (in.) | Wind Dir. | Wind Speed (mph) | Hourly Rainfall (in.) |
|
|---|---|---|---|---|---|---|---|---|---|
| 1 | 11/18 | 00:00 | 39 | 33 | 80 | 30.41 | SSE | 3 | 0.00 |
| 2 | 11/17 | 23:00 | 40 | 33 | 77 | 30.42 | SE | 3 | 0.00 |
| 3 | 11/17 | 22:00 | 43 | 35 | 75 | 30.42 | S | 4 | 0.00 |
| 4 | 11/17 | 21:00 | 44 | 35 | 73 | 30.43 | SSE | 4 | 0.00 |
| 5 | 11/17 | 20:00 | 45 | 36 | 72 | 30.43 | SSW | 3 | 0.00 |
| 6 | 11/17 | 19:00 | 46 | 37 | 71 | 30.42 | SSE | 7 | 0.00 |
| 7 | 11/17 | 18:00 | 47 | 37 | 70 | 30.40 | S | 3 | 0.00 |
| 8 | 11/17 | 17:00 | 51 | 39 | 64 | 30.38 | SSE | 0 | 0.00 |
| 9 | 11/17 | 16:00 | 53 | 39 | 60 | 30.37 | S | 7 | 0.00 |
| 10 | 11/17 | 15:00 | 54 | 38 | 55 | 30.36 | S | 9 | 0.00 |
| 11 | 11/17 | 14:00 | 55 | 38 | 54 | 30.37 | S | 6 | 0.00 |
| 12 | 11/17 | 13:00 | 56 | 40 | 56 | 30.40 | SSW | 4 | 0.00 |
| 13 | 11/17 | 12:00 | 53 | 36 | 54 | 30.41 | SSE | 3 | 0.00 |
| 14 | 11/17 | 11:00 | 51 | 34 | 54 | 30.41 | E | 7 | 0.00 |
| 15 | 11/17 | 10:00 | 49 | 34 | 57 | 30.42 | SSE | 8 | 0.00 |
| 16 | 11/17 | 09:00 | 47 | 32 | 58 | 30.41 | SSE | 6 | 0.00 |
| 17 | 11/17 | 08:00 | 44 | 31 | 62 | 30.39 | SE | 5 | 0.00 |
| 18 | 11/17 | 07:00 | 39 | 31 | 74 | 30.36 | SE | 5 | 0.00 |
| 19 | 11/17 | 06:00 | 39 | 34 | 85 | 30.34 | SE | 4 | 0.00 |
| 20 | 11/17 | 05:00 | 38 | 34 | 87 | 30.31 | E | 0 | 0.00 |
| 21 | 11/17 | 04:00 | 37 | 32 | 85 | 30.30 | SW | 0 | 0.00 |
| 22 | 11/17 | 03:00 | 37 | 32 | 83 | 30.28 | WSW | 0 | 0.00 |
| 23 | 11/17 | 02:00 | 39 | 33 | 80 | 30.27 | W | 0 | 0.00 |
| 24 | 11/17 | 01:00 | 40 | 33 | 78 | 30.25 | SSE | 0 | 0.00 |